createdAt,value
2023-06-19T00:02:25.508Z,100.00
2023-06-19T00:05:17.600Z,100.00
2023-06-19T00:08:10.471Z,100.00
2023-06-19T00:11:02.500Z,100.00
2023-06-19T00:13:47.396Z,100.00
2023-06-19T00:16:39.613Z,100.00
2023-06-19T00:19:24.616Z,100.00
2023-06-19T00:22:16.479Z,100.00
2023-06-19T00:25:01.637Z,100.00
2023-06-19T00:27:54.498Z,100.00
2023-06-19T00:30:39.332Z,100.00
2023-06-19T00:33:30.481Z,100.00
2023-06-19T00:36:17.193Z,100.00
2023-06-19T00:39:08.494Z,100.00
2023-06-19T00:41:53.949Z,100.00
2023-06-19T00:44:46.524Z,100.00
2023-06-19T00:47:31.500Z,100.00
2023-06-19T00:50:22.773Z,100.00
2023-06-19T00:53:09.440Z,100.00
2023-06-19T00:56:03.509Z,100.00
2023-06-19T00:58:48.526Z,100.00
2023-06-19T01:01:40.540Z,100.00
2023-06-19T01:04:31.781Z,100.00
2023-06-19T01:07:26.499Z,100.00
2023-06-19T01:10:15.964Z,100.00
2023-06-19T01:13:14.520Z,100.00
2023-06-19T01:16:00.812Z,100.00
2023-06-19T01:18:53.521Z,100.00
2023-06-19T01:21:38.644Z,100.00
2023-06-19T01:24:30.569Z,100.00
2023-06-19T01:27:15.382Z,100.00
2023-06-19T01:30:08.540Z,100.00
2023-06-19T01:33:11.619Z,100.00
2023-06-19T01:35:58.628Z,100.00
2023-06-19T01:38:52.518Z,100.00
2023-06-19T01:41:39.304Z,100.00
2023-06-19T01:44:31.554Z,100.00
2023-06-19T01:47:20.774Z,100.00
2023-06-19T01:50:13.566Z,100.00
2023-06-19T01:52:58.661Z,100.00
2023-06-19T01:55:50.542Z,100.00
2023-06-19T01:58:35.724Z,100.00
2023-06-19T02:01:27.523Z,100.00
2023-06-19T02:04:18.564Z,100.00
2023-06-19T02:07:17.544Z,100.00
2023-06-19T02:10:09.567Z,100.00
2023-06-19T02:13:01.535Z,100.00
2023-06-19T02:15:46.452Z,100.00
2023-06-19T02:18:38.529Z,100.00
2023-06-19T02:21:30.543Z,100.00
2023-06-19T02:24:21.576Z,100.00
2023-06-19T02:27:13.541Z,100.00
2023-06-19T02:30:04.531Z,100.00
2023-06-19T02:32:49.424Z,100.00
2023-06-19T02:35:41.552Z,100.00
2023-06-19T02:38:33.530Z,100.00
2023-06-19T02:41:19.473Z,100.00
2023-06-19T02:44:11.539Z,100.00
2023-06-19T02:47:02.558Z,100.00
2023-06-19T02:49:47.742Z,100.00
2023-06-19T02:52:39.595Z,100.00
2023-06-19T02:55:24.586Z,100.00
2023-06-19T02:58:15.533Z,100.00
2023-06-19T03:01:01.122Z,100.00
2023-06-19T03:03:53.565Z,100.00
2023-06-19T03:06:40.836Z,100.00
2023-06-19T03:09:32.558Z,100.00
2023-06-19T03:12:17.568Z,100.00
2023-06-19T03:15:09.569Z,100.00
2023-06-19T03:17:54.772Z,100.00
2023-06-19T03:20:46.571Z,100.00
2023-06-19T03:23:31.641Z,100.00
2023-06-19T03:26:22.608Z,100.00
2023-06-19T03:29:07.453Z,100.00
2023-06-19T03:31:58.594Z,100.00
2023-06-19T03:34:43.313Z,100.00
2023-06-19T03:37:34.584Z,100.00
2023-06-19T03:40:19.757Z,100.00
2023-06-19T03:43:11.573Z,100.00
2023-06-19T03:45:56.391Z,100.00
2023-06-19T03:48:48.580Z,100.00
2023-06-19T03:51:33.820Z,100.00
2023-06-19T03:54:25.576Z,100.00
2023-06-19T03:57:10.301Z,100.00
2023-06-19T04:00:01.600Z,100.00
2023-06-19T04:02:49.109Z,100.00
2023-06-19T04:05:49.597Z,100.00
2023-06-19T04:08:34.557Z,100.00
2023-06-19T04:11:26.590Z,100.00
2023-06-19T04:14:11.479Z,100.00
2023-06-19T04:17:02.593Z,100.00
2023-06-19T04:19:47.298Z,100.00
2023-06-19T04:22:38.564Z,100.00
2023-06-19T04:25:23.543Z,100.00
2023-06-19T04:28:14.583Z,100.00
2023-06-19T04:31:02.580Z,100.00
2023-06-19T04:33:54.574Z,100.00
2023-06-19T04:36:39.579Z,100.00
2023-06-19T04:39:31.588Z,100.00
2023-06-19T04:42:21.589Z,100.00
2023-06-19T04:45:14.591Z,100.00
2023-06-19T04:48:03.963Z,100.00
2023-06-19T04:50:55.589Z,100.00
2023-06-19T04:53:40.604Z,100.00
2023-06-19T04:56:31.614Z,100.00
2023-06-19T04:59:25.608Z,100.00
2023-06-19T05:02:11.486Z,100.00
2023-06-19T05:05:09.600Z,100.00
2023-06-19T05:08:01.685Z,100.00
2023-06-19T05:10:53.606Z,100.00
2023-06-19T05:13:38.790Z,100.00
2023-06-19T05:16:33.056Z,100.00
2023-06-19T05:19:19.995Z,100.00
2023-06-19T05:22:11.625Z,100.00
2023-06-19T05:25:03.612Z,100.00
2023-06-19T05:27:48.391Z,100.00
2023-06-19T05:30:39.631Z,100.00
2023-06-19T05:33:24.635Z,100.00
2023-06-19T05:36:16.635Z,100.00
2023-06-19T05:39:01.716Z,100.00
2023-06-19T05:41:53.635Z,100.00
2023-06-19T05:44:38.572Z,100.00
2023-06-19T05:47:32.682Z,100.00
2023-06-19T05:50:17.877Z,100.00
2023-06-19T05:53:09.624Z,100.00
2023-06-19T05:56:00.647Z,100.00
2023-06-19T05:58:51.613Z,100.00
2023-06-19T06:01:43.658Z,100.00
2023-06-19T06:04:41.652Z,100.00
2023-06-19T06:07:36.312Z,100.00
2023-06-19T06:10:29.633Z,100.00
2023-06-19T06:13:14.680Z,100.00
2023-06-19T06:16:06.633Z,100.00
2023-06-19T06:18:51.447Z,100.00
2023-06-19T06:21:42.648Z,100.00
2023-06-19T06:24:28.349Z,100.00
2023-06-19T06:27:20.646Z,100.00
2023-06-19T06:30:06.715Z,100.00
2023-06-19T06:32:58.667Z,100.00
2023-06-19T06:35:43.381Z,100.00
2023-06-19T06:38:34.644Z,100.00
2023-06-19T06:41:19.712Z,100.00
2023-06-19T06:44:12.625Z,100.00
2023-06-19T06:46:57.644Z,100.00
2023-06-19T06:49:48.686Z,100.00
2023-06-19T06:52:40.640Z,100.00
2023-06-19T06:55:31.654Z,100.00
2023-06-19T06:58:18.300Z,100.00
2023-06-19T07:01:09.822Z,100.00
2023-06-19T07:04:14.679Z,100.00
2023-06-19T07:07:06.666Z,100.00
2023-06-19T07:09:51.541Z,100.00
2023-06-19T07:12:43.674Z,100.00
2023-06-19T07:15:28.879Z,100.00
2023-06-19T07:18:20.670Z,100.00
2023-06-19T07:21:18.665Z,100.00
2023-06-19T07:24:10.675Z,100.00
2023-06-19T07:27:03.680Z,100.00
2023-06-19T07:29:49.011Z,100.00
2023-06-19T07:32:40.712Z,100.00
2023-06-19T07:35:25.786Z,100.00
2023-06-19T07:38:16.654Z,100.00
2023-06-19T07:41:01.840Z,100.00
2023-06-19T07:43:53.661Z,100.00
2023-06-19T07:46:44.670Z,100.00
2023-06-19T07:49:29.705Z,100.00
2023-06-19T07:52:21.670Z,100.00
2023-06-19T07:55:13.664Z,100.00
2023-06-19T07:58:05.660Z,100.00
2023-06-19T08:00:50.785Z,100.00
2023-06-19T08:03:42.735Z,100.00
2023-06-19T08:06:33.926Z,100.00
2023-06-19T08:09:25.660Z,100.00
2023-06-19T08:12:10.643Z,94.61
2023-06-19T08:15:01.673Z,100.00
2023-06-19T08:17:47.009Z,91.24
2023-06-19T08:20:38.728Z,82.21
2023-06-19T08:23:23.543Z,82.57
2023-06-19T08:26:15.684Z,80.18
2023-06-19T08:29:00.536Z,65.18
2023-06-19T08:31:51.708Z,77.72
2023-06-19T08:34:37.609Z,92.81
2023-06-19T08:37:28.728Z,94.59
2023-06-19T08:40:13.573Z,94.26
2023-06-19T08:43:05.681Z,94.97
2023-06-19T08:46:11.888Z,92.86
2023-06-19T08:48:57.146Z,90.97
2023-06-19T08:51:48.743Z,95.13
2023-06-19T08:54:39.699Z,72.35
2023-06-19T08:57:34.941Z,84.50
2023-06-19T09:00:34.715Z,83.59
2023-06-19T09:03:29.853Z,76.54
2023-06-19T09:06:24.808Z,84.00
2023-06-19T09:09:20.750Z,76.00
2023-06-19T09:12:14.705Z,78.13
2023-06-19T09:14:59.511Z,74.45
2023-06-19T09:17:51.760Z,73.53
2023-06-19T09:20:45.113Z,64.06
2023-06-19T09:23:36.721Z,59.80
2023-06-19T09:26:21.750Z,57.29
2023-06-19T09:29:26.726Z,60.68
2023-06-19T09:32:25.787Z,65.42
2023-06-19T09:35:17.740Z,63.55
2023-06-19T09:38:03.197Z,61.68
2023-06-19T09:40:55.708Z,58.00
2023-06-19T09:43:45.017Z,55.06
2023-06-19T09:46:40.768Z,55.72
2023-06-19T09:49:39.726Z,52.20
2023-06-19T09:52:25.320Z,54.06
2023-06-19T09:55:20.761Z,53.37
2023-06-19T09:58:06.778Z,52.11
2023-06-19T10:00:58.724Z,49.91
2023-06-19T10:03:44.260Z,48.36
2023-06-19T10:06:56.728Z,45.27
2023-06-19T10:09:41.985Z,47.98
2023-06-19T10:12:47.755Z,46.34
2023-06-19T10:15:32.707Z,44.42
2023-06-19T10:18:25.766Z,46.33
2023-06-19T10:21:17.919Z,47.24
2023-06-19T10:24:09.787Z,43.82
2023-06-19T10:27:03.065Z,45.63
2023-06-19T10:30:10.142Z,45.54
2023-06-19T10:33:10.742Z,43.28
2023-06-19T10:35:56.180Z,42.69
2023-06-19T10:38:47.762Z,41.36
2023-06-19T10:41:39.779Z,41.75
2023-06-19T10:44:26.431Z,43.76
2023-06-19T10:47:17.757Z,43.58
2023-06-19T10:50:11.885Z,44.93
2023-06-19T10:52:56.964Z,44.73
2023-06-19T10:55:48.757Z,42.21
2023-06-19T10:58:33.723Z,43.29
2023-06-19T11:01:25.787Z,43.00
2023-06-19T11:04:18.832Z,41.85
2023-06-19T11:07:16.788Z,43.67
2023-06-19T11:10:10.788Z,41.21
2023-06-19T11:12:58.253Z,43.19
2023-06-19T11:15:49.816Z,47.82
2023-06-19T11:18:34.885Z,46.96
2023-06-19T11:21:26.774Z,48.12
2023-06-19T11:24:20.862Z,44.78
2023-06-19T11:27:06.392Z,44.43
2023-06-19T11:30:02.794Z,43.50
2023-06-19T11:32:49.287Z,44.47
2023-06-19T11:35:43.792Z,48.28
2023-06-19T11:38:28.859Z,49.66
2023-06-19T11:41:19.790Z,50.72
2023-06-19T11:44:06.814Z,49.32
2023-06-19T11:46:57.795Z,50.04
2023-06-19T11:49:43.135Z,54.32
2023-06-19T11:52:34.798Z,53.54
2023-06-19T11:55:20.008Z,52.60
2023-06-19T11:58:11.785Z,53.07
2023-06-19T12:01:03.821Z,51.75
2023-06-19T12:03:48.785Z,53.37
2023-06-19T12:06:47.833Z,53.11
2023-06-19T12:09:35.700Z,53.93
2023-06-19T12:12:42.851Z,52.98
2023-06-19T12:15:37.541Z,51.96
2023-06-19T12:18:28.805Z,52.57
2023-06-19T12:21:29.162Z,53.85
2023-06-19T12:24:24.839Z,55.07
2023-06-19T12:27:10.235Z,61.52
2023-06-19T12:30:01.814Z,58.24
2023-06-19T12:32:50.653Z,57.42
2023-06-19T12:35:42.813Z,53.72
2023-06-19T12:38:27.874Z,54.01
2023-06-19T12:41:18.814Z,53.87
2023-06-19T12:44:04.225Z,54.52
2023-06-19T12:46:55.809Z,53.68
2023-06-19T12:49:47.807Z,52.38
2023-06-19T12:52:38.823Z,54.04
2023-06-19T12:55:29.820Z,53.93
2023-06-19T12:58:20.833Z,53.81
2023-06-19T13:01:06.515Z,50.61
2023-06-19T13:03:57.927Z,54.51
2023-06-19T13:06:49.844Z,56.87
2023-06-19T13:09:41.029Z,52.59
2023-06-19T13:12:32.858Z,53.87
2023-06-19T13:15:18.247Z,53.48
2023-06-19T13:18:09.862Z,53.08
2023-06-19T13:20:54.898Z,54.59
2023-06-19T13:23:45.864Z,55.44
2023-06-19T13:26:30.980Z,55.33
2023-06-19T13:29:22.848Z,57.00
2023-06-19T13:32:08.177Z,54.54
2023-06-19T13:35:03.841Z,57.42
2023-06-19T13:37:48.885Z,52.66
2023-06-19T13:40:40.843Z,53.25
2023-06-19T13:43:25.817Z,51.42
2023-06-19T13:46:16.903Z,50.53
2023-06-19T13:49:07.816Z,51.56
2023-06-19T13:51:59.871Z,53.92
2023-06-19T13:54:44.626Z,50.26
2023-06-19T13:57:35.842Z,53.32
2023-06-19T14:00:27.848Z,52.94
2023-06-19T14:03:14.294Z,52.91
2023-06-19T14:06:05.844Z,54.15
2023-06-19T14:09:03.862Z,52.78
2023-06-19T14:11:49.100Z,53.10
2023-06-19T14:14:40.860Z,51.87
2023-06-19T14:17:25.834Z,52.35
2023-06-19T14:20:18.848Z,49.30
2023-06-19T14:23:03.736Z,51.02
2023-06-19T14:25:54.861Z,52.59
2023-06-19T14:28:40.289Z,55.58
2023-06-19T14:31:31.859Z,51.42
2023-06-19T14:34:16.754Z,52.44
2023-06-19T14:37:07.874Z,51.98
2023-06-19T14:39:52.783Z,51.29
2023-06-19T14:42:44.890Z,50.92
2023-06-19T14:45:29.801Z,52.17
2023-06-19T14:48:20.861Z,51.55
2023-06-19T14:51:11.894Z,53.04
2023-06-19T14:53:57.369Z,49.57
2023-06-19T14:56:48.880Z,52.80
2023-06-19T14:59:33.849Z,50.95
2023-06-19T15:02:24.915Z,50.45
2023-06-19T15:05:16.881Z,51.42
2023-06-19T15:08:10.252Z,51.52
2023-06-19T15:11:01.891Z,50.01
2023-06-19T15:13:53.877Z,53.19
2023-06-19T15:16:38.983Z,51.29
2023-06-19T15:19:31.868Z,50.48
2023-06-19T15:22:16.965Z,50.88
2023-06-19T15:25:07.887Z,49.66
2023-06-19T15:27:58.937Z,52.14
2023-06-19T15:30:43.807Z,50.57
2023-06-19T15:33:34.895Z,51.49
2023-06-19T15:36:25.903Z,52.40
2023-06-19T15:39:16.882Z,51.41
2023-06-19T15:42:01.731Z,50.71
2023-06-19T15:44:52.888Z,52.92
2023-06-19T15:47:45.063Z,52.52
2023-06-19T15:50:36.917Z,51.41
2023-06-19T15:53:21.785Z,52.95
2023-06-19T15:56:13.929Z,50.33
2023-06-19T15:58:58.754Z,51.86
2023-06-19T16:01:50.011Z,51.14
2023-06-19T16:04:35.139Z,53.73
2023-06-19T16:07:32.915Z,50.58
2023-06-19T16:10:18.378Z,51.83
2023-06-19T16:13:09.919Z,52.24
2023-06-19T16:15:54.859Z,51.23
2023-06-19T16:18:46.914Z,51.91
2023-06-19T16:21:32.214Z,51.86
2023-06-19T16:24:23.953Z,51.29
2023-06-19T16:27:09.318Z,52.86
2023-06-19T16:30:00.928Z,50.99
2023-06-19T16:32:45.903Z,52.63
2023-06-19T16:35:38.940Z,52.42
2023-06-19T16:38:24.062Z,51.68
2023-06-19T16:41:16.573Z,52.94
2023-06-19T16:44:08.932Z,52.64
2023-06-19T16:47:00.009Z,53.83
2023-06-19T16:49:51.956Z,55.44
2023-06-19T16:52:42.983Z,55.33
2023-06-19T16:55:27.903Z,58.28
2023-06-19T16:58:18.937Z,62.50
2023-06-19T17:01:04.076Z,62.52
2023-06-19T17:03:54.940Z,59.94
2023-06-19T17:06:52.968Z,60.47
2023-06-19T17:09:44.956Z,61.48
2023-06-19T17:12:35.988Z,55.70
2023-06-19T17:15:20.743Z,58.46
2023-06-19T17:18:14.028Z,60.65
2023-06-19T17:20:58.655Z,58.54
2023-06-19T17:23:49.946Z,68.64
2023-06-19T17:26:35.055Z,61.32
2023-06-19T17:29:25.945Z,64.91
2023-06-19T17:32:10.868Z,63.24
2023-06-19T17:35:01.933Z,69.12
2023-06-19T17:37:47.196Z,72.05
2023-06-19T17:40:38.963Z,72.51
2023-06-19T17:43:30.940Z,73.05
2023-06-19T17:46:15.824Z,73.71
2023-06-19T17:49:06.955Z,71.05
2023-06-19T17:51:57.964Z,76.20
2023-06-19T17:54:45.812Z,76.94
2023-06-19T17:57:36.971Z,78.38
2023-06-19T18:00:28.966Z,76.74
2023-06-19T18:03:13.802Z,78.58
2023-06-19T18:06:05.962Z,78.77
2023-06-19T18:08:57.004Z,81.29
2023-06-19T18:11:47.967Z,77.61
2023-06-19T18:14:39.959Z,79.29
2023-06-19T18:17:32.027Z,79.90
2023-06-19T18:20:24.212Z,80.13
2023-06-19T18:23:15.986Z,80.40
2023-06-19T18:26:01.266Z,82.15
2023-06-19T18:28:52.967Z,80.57
2023-06-19T18:31:44.983Z,83.77
2023-06-19T18:34:36.967Z,88.37
2023-06-19T18:37:21.816Z,86.39
2023-06-19T18:40:13.974Z,87.18
2023-06-19T18:43:05.992Z,88.39
2023-06-19T18:45:51.493Z,87.04
2023-06-19T18:48:42.956Z,85.10
2023-06-19T18:51:27.864Z,86.51
2023-06-19T18:54:18.990Z,84.42
2023-06-19T18:57:04.232Z,89.08
2023-06-19T18:59:55.985Z,90.16
2023-06-19T19:02:40.828Z,86.53
2023-06-19T19:05:32.995Z,88.25
2023-06-19T19:08:24.163Z,87.66
2023-06-19T19:11:15.988Z,90.99
2023-06-19T19:14:00.913Z,85.29
2023-06-19T19:16:52.036Z,86.14
2023-06-19T19:19:37.413Z,87.78
2023-06-19T19:22:29.008Z,90.61
2023-06-19T19:25:14.044Z,87.05
2023-06-19T19:28:05.981Z,94.71
2023-06-19T19:30:57.004Z,86.81
2023-06-19T19:33:42.434Z,99.72
2023-06-19T19:36:34.021Z,90.46
2023-06-19T19:39:18.832Z,95.40
2023-06-19T19:42:11.023Z,99.15
2023-06-19T19:44:55.974Z,90.30
2023-06-19T19:47:48.018Z,98.22
2023-06-19T19:50:34.012Z,99.57
2023-06-19T19:53:25.005Z,94.76
2023-06-19T19:56:17.026Z,100.00
2023-06-19T19:59:08.027Z,100.00
2023-06-19T20:02:00.148Z,98.09
2023-06-19T20:04:52.035Z,95.92
2023-06-19T20:07:50.023Z,100.00
2023-06-19T20:10:35.415Z,100.00
2023-06-19T20:13:27.005Z,100.00
2023-06-19T20:16:12.151Z,100.00
2023-06-19T20:19:04.017Z,100.00
2023-06-19T20:21:56.036Z,100.00
2023-06-19T20:24:41.128Z,100.00
2023-06-19T20:27:34.066Z,100.00
2023-06-19T20:30:18.804Z,94.84
2023-06-19T20:33:10.049Z,100.00
2023-06-19T20:35:55.152Z,100.00
2023-06-19T20:38:47.017Z,100.00
2023-06-19T20:41:39.023Z,100.00
2023-06-19T20:44:24.829Z,98.86
2023-06-19T20:47:16.098Z,100.00
2023-06-19T20:50:07.047Z,100.00
2023-06-19T20:52:58.059Z,100.00
2023-06-19T20:55:50.141Z,97.14
2023-06-19T20:58:42.032Z,100.00
2023-06-19T21:01:27.175Z,100.00
2023-06-19T21:04:19.031Z,100.00
2023-06-19T21:07:10.402Z,100.00
2023-06-19T21:10:02.048Z,100.00
2023-06-19T21:12:46.966Z,99.50
2023-06-19T21:15:38.035Z,99.23
2023-06-19T21:18:29.029Z,100.00
2023-06-19T21:21:14.278Z,100.00
2023-06-19T21:24:06.127Z,100.00
2023-06-19T21:26:51.326Z,100.00
2023-06-19T21:29:44.058Z,100.00
2023-06-19T21:32:29.286Z,100.00
2023-06-19T21:35:21.060Z,100.00
2023-06-19T21:38:06.147Z,100.00
2023-06-19T21:40:58.056Z,100.00
2023-06-19T21:43:43.012Z,100.00
2023-06-19T21:46:34.137Z,100.00
2023-06-19T21:49:19.135Z,100.00
2023-06-19T21:52:11.077Z,100.00
2023-06-19T21:54:56.119Z,100.00
2023-06-19T21:57:59.568Z,100.00
2023-06-19T22:00:45.136Z,100.00
2023-06-19T22:03:36.154Z,100.00
2023-06-19T22:06:28.148Z,100.00
2023-06-19T22:09:27.080Z,100.00
2023-06-19T22:12:12.091Z,100.00
2023-06-19T22:15:04.074Z,100.00
2023-06-19T22:17:49.307Z,100.00
2023-06-19T22:20:41.083Z,100.00
2023-06-19T22:23:34.084Z,100.00
2023-06-19T22:26:19.918Z,100.00
2023-06-19T22:29:14.107Z,100.00
2023-06-19T22:32:06.085Z,100.00
2023-06-19T22:34:58.088Z,100.00
2023-06-19T22:37:43.498Z,100.00
2023-06-19T22:40:35.076Z,100.00
2023-06-19T22:43:19.950Z,100.00
2023-06-19T22:46:11.145Z,100.00
2023-06-19T22:48:56.447Z,100.00
2023-06-19T22:51:48.089Z,100.00
2023-06-19T22:54:32.942Z,100.00
2023-06-19T22:57:24.094Z,100.00
2023-06-19T23:00:13.700Z,100.00
2023-06-19T23:03:12.182Z,100.00
2023-06-19T23:06:14.090Z,100.00
2023-06-19T23:09:05.083Z,100.00
2023-06-19T23:11:57.096Z,100.00
2023-06-19T23:14:41.868Z,100.00
2023-06-19T23:17:33.100Z,100.00
2023-06-19T23:20:18.458Z,100.00
2023-06-19T23:23:12.111Z,100.00
2023-06-19T23:26:08.098Z,100.00
2023-06-19T23:29:01.078Z,100.00
2023-06-19T23:31:52.106Z,100.00
2023-06-19T23:34:43.101Z,100.00
2023-06-19T23:37:28.064Z,100.00
2023-06-19T23:40:20.087Z,100.00
2023-06-19T23:43:11.125Z,100.00
2023-06-19T23:45:55.906Z,100.00
2023-06-19T23:48:48.123Z,100.00
2023-06-19T23:51:33.034Z,100.00
2023-06-19T23:54:24.099Z,100.00
2023-06-19T23:57:16.114Z,100.00
